Time,TemperatureF,DewpointF,PressureIn,WindDirection,WindDirectionDegrees,WindSpeedMPH,WindSpeedGustMPH,Humidity,HourlyPrecipIn,Conditions,Clouds,dailyrainin,SoftwareType,DateUTC
2013-04-12 00:01:00,42.6,42.6,30.15,SE,145,2.5,2.5,100,0.00,,OVC060,0.00,VWS V14.01,2013-04-12 04:01:00,
2013-04-12 00:05:00,42.5,42.5,30.15,NNE,30,2.5,2.5,100,0.00,,OVC060,0.00,VWS V14.01,2013-04-12 04:05:00,
2013-04-12 00:11:00,42.3,42.3,30.15,NNE,30,2.5,2.5,100,0.00,,OVC060,0.00,VWS V14.01,2013-04-12 04:11:00,
2013-04-12 00:17:00,42.3,42.3,30.16,NNE,30,2.5,2.5,100,0.00,,OVC060,0.00,VWS V14.01,2013-04-12 04:17:00,
2013-04-12 00:23:00,42.2,42.2,30.15,NNE,30,2.5,2.5,100,0.00,,OVC060,0.00,VWS V14.01,2013-04-12 04:23:00,
2013-04-12 00:29:00,42.1,42.1,30.16,NNE,30,2.5,2.5,100,0.00,,OVC060,0.00,VWS V14.01,2013-04-12 04:29:00,
2013-04-12 00:35:00,42.0,42.0,30.16,NNE,30,2.5,2.5,100,0.00,,OVC060,0.00,VWS V14.01,2013-04-12 04:35:00,
2013-04-12 00:41:00,41.9,41.9,30.16,NNE,30,2.5,2.5,100,0.00,,OVC060,0.00,VWS V14.01,2013-04-12 04:41:00,
2013-04-12 00:47:00,41.7,41.7,30.17,NNE,30,2.5,2.5,100,0.00,,OVC060,0.00,VWS V14.01,2013-04-12 04:47:00,
2013-04-12 00:53:00,41.9,41.9,30.17,NNE,30,2.5,2.5,100,0.00,,OVC060,0.00,VWS V14.01,2013-04-12 04:53:00,
2013-04-12 00:59:00,41.8,41.8,30.17,NNE,30,2.5,2.5,100,0.00,,OVC060,0.00,VWS V14.01,2013-04-12 04:59:00,
2013-04-12 01:05:00,41.6,41.6,30.17,NNE,30,2.5,2.5,100,0.00,,-RA,0.00,VWS V14.01,2013-04-12 05:05:00,
2013-04-12 01:11:00,41.4,41.4,30.17,NNE,30,2.5,2.5,100,0.00,,-RA,0.00,VWS V14.01,2013-04-12 05:11:00,
2013-04-12 01:17:00,41.8,41.8,30.17,NNE,30,2.5,2.5,100,0.00,,-RA,0.00,VWS V14.01,2013-04-12 05:17:00,
2013-04-12 01:23:00,41.6,41.6,30.17,NNE,30,2.5,2.5,100,0.00,,-RA,0.00,VWS V14.01,2013-04-12 05:23:00,
2013-04-12 01:29:00,41.2,41.2,30.16,NNE,28,3.1,6.7,100,0.00,,-RA,0.00,VWS V14.01,2013-04-12 05:29:00,
2013-04-12 01:35:00,41.0,41.0,30.16,ENE,73,2.5,2.5,100,0.00,,-RA,0.00,VWS V14.01,2013-04-12 05:35:00,
2013-04-12 01:41:00,40.9,40.9,30.16,ENE,73,2.5,2.5,100,0.00,,-RA,0.00,VWS V14.01,2013-04-12 05:41:00,
2013-04-12 01:47:00,40.8,40.8,30.16,ENE,73,2.5,2.5,100,0.00,,-RA,0.00,VWS V14.01,2013-04-12 05:47:00,
2013-04-12 01:53:00,40.9,40.9,30.15,ENE,73,2.5,2.5,100,0.00,,-RA,0.00,VWS V14.01,2013-04-12 05:53:00,
2013-04-12 01:59:00,40.5,40.5,30.14,ENE,73,2.5,2.5,100,0.00,,-RA,0.00,VWS V14.01,2013-04-12 05:59:00,
2013-04-12 02:05:00,40.0,40.0,30.15,ENE,65,2.5,2.5,100,0.00,,OVC060,0.00,VWS V14.01,2013-04-12 06:05:00,
2013-04-12 02:11:00,40.1,40.1,30.15,SE,142,5.5,5.5,100,0.00,,OVC060,0.00,VWS V14.01,2013-04-12 06:11:00,
2013-04-12 02:17:00,40.1,40.1,30.14,SSE,149,2.5,6.7,100,0.00,,OVC060,0.00,VWS V14.01,2013-04-12 06:17:00,
2013-04-12 02:23:00,39.9,39.9,30.15,East,101,2.5,2.5,100,0.00,,OVC060,0.00,VWS V14.01,2013-04-12 06:23:00,
2013-04-12 02:29:00,40.0,40.0,30.14,East,101,2.5,2.5,100,0.00,,OVC060,0.00,VWS V14.01,2013-04-12 06:29:00,
2013-04-12 02:35:00,39.7,39.7,30.15,East,101,2.5,2.5,100,0.00,,OVC060,0.00,VWS V14.01,2013-04-12 06:35:00,
2013-04-12 02:41:00,39.8,39.8,30.15,East,101,2.5,2.5,100,0.00,,OVC060,0.00,VWS V14.01,2013-04-12 06:41:00,
2013-04-12 02:47:00,39.5,39.5,30.16,East,101,2.5,2.5,100,0.00,,OVC060,0.00,VWS V14.01,2013-04-12 06:47:00,
2013-04-12 02:53:00,40.0,40.0,30.16,East,101,2.5,5.5,100,0.00,,OVC060,0.00,VWS V14.01,2013-04-12 06:53:00,
2013-04-12 02:59:00,40.2,40.2,30.16,East,101,2.5,2.5,100,0.00,,OVC060,0.00,VWS V14.01,2013-04-12 06:59:00,
2013-04-12 03:05:00,40.1,40.1,30.15,ESE,104,2.5,7.1,100,0.00,,-RA,0.00,VWS V14.01,2013-04-12 07:05:00,
2013-04-12 03:11:00,40.2,40.2,30.15,SE,146,4.7,8.2,100,0.00,,-RA,0.00,VWS V14.01,2013-04-12 07:11:00,
2013-04-12 03:17:00,40.3,40.3,30.15,East,97,6.6,6.7,100,0.00,,-RA,0.00,VWS V14.01,2013-04-12 07:17:00,
2013-04-12 03:23:00,40.2,40.2,30.15,SE,145,2.5,5.2,100,0.00,,-RA,0.00,VWS V14.01,2013-04-12 07:23:00,
2013-04-12 03:29:00,40.1,40.1,30.15,SE,138,2.5,5.9,100,0.00,,-RA,0.00,VWS V14.01,2013-04-12 07:29:00,
2013-04-12 03:35:00,40.1,40.1,30.15,NE,46,3.2,10.6,100,0.00,,-RA,0.00,VWS V14.01,2013-04-12 07:35:00,
2013-04-12 03:41:00,39.8,39.8,30.16,ESE,107,4.6,7.3,100,0.00,,-RA,0.00,VWS V14.01,2013-04-12 07:41:00,
2013-04-12 03:47:00,39.9,39.9,30.16,SE,146,4.1,5.4,100,0.00,,-RA,0.00,VWS V14.01,2013-04-12 07:47:00,
2013-04-12 03:53:00,39.8,39.8,30.16,SE,131,2.5,2.5,100,0.00,,-RA,0.00,VWS V14.01,2013-04-12 07:53:00,
2013-04-12 03:59:00,40.0,40.0,30.16,SE,132,7.5,11.2,100,0.00,,-RA,0.00,VWS V14.01,2013-04-12 07:59:00,
2013-04-12 04:05:00,39.8,39.8,30.16,SSE,160,7.5,11.4,100,0.00,,-RA,0.00,VWS V14.01,2013-04-12 08:05:00,
2013-04-12 04:11:00,39.5,39.4,30.16,South,170,10.7,10.7,100,0.00,,-RA,0.00,VWS V14.01,2013-04-12 08:11:00,
2013-04-12 04:17:00,39.5,38.8,30.16,ESE,107,4.7,10.6,97,0.00,,-RA,0.00,VWS V14.01,2013-04-12 08:17:00,
2013-04-12 04:23:00,39.3,38.4,30.16,South,187,5.8,12.0,96,0.00,,-RA,0.00,VWS V14.01,2013-04-12 08:23:00,
2013-04-12 04:29:00,39.4,37.7,30.16,SE,145,6.5,11.8,94,0.00,,-RA,0.00,VWS V14.01,2013-04-12 08:29:00,
2013-04-12 04:35:00,39.5,37.7,30.15,SE,135,7.6,19.6,93,0.00,,-RA,0.00,VWS V14.01,2013-04-12 08:35:00,
2013-04-12 04:43:00,39.6,37.9,30.15,SE,132,7.6,10.8,94,0.00,,-RA,0.00,VWS V14.01,2013-04-12 08:43:00,
2013-04-12 04:49:00,39.7,37.7,30.15,East,96,6.4,13.9,92,0.00,,-RA,0.00,VWS V14.01,2013-04-12 08:49:00,
2013-04-12 04:55:00,39.6,38.0,30.15,SE,141,7.0,13.4,94,0.00,,-RA,0.00,VWS V14.01,2013-04-12 08:55:00,
2013-04-12 05:03:00,40.0,36.9,30.15,ESE,112,14.4,14.4,88,0.00,,OVC046,0.00,VWS V14.01,2013-04-12 09:03:00,
2013-04-12 05:09:00,40.1,36.5,30.15,East,100,5.8,15.3,87,0.00,,OVC046,0.00,VWS V14.01,2013-04-12 09:09:00,
2013-04-12 05:15:00,40.1,36.8,30.15,East,84,4.5,13.7,88,0.00,,OVC046,0.00,VWS V14.01,2013-04-12 09:15:00,
2013-04-12 05:21:00,40.3,37.0,30.15,SSE,165,9.6,13.1,88,0.00,,OVC046,0.00,VWS V14.01,2013-04-12 09:21:00,
2013-04-12 05:27:00,40.3,37.9,30.15,South,184,8.9,17.7,91,0.00,,OVC046,0.00,VWS V14.01,2013-04-12 09:27:00,
2013-04-12 05:33:00,40.3,39.1,30.15,SSE,158,10.7,16.5,95,0.00,,OVC046,0.00,VWS V14.01,2013-04-12 09:33:00,
2013-04-12 05:39:00,40.4,40.1,30.15,ESE,110,6.8,13.5,99,0.00,,OVC046,0.00,VWS V14.01,2013-04-12 09:39:00,
2013-04-12 05:45:00,40.3,40.3,30.15,ENE,77,6.2,11.7,100,0.00,,OVC046,0.00,VWS V14.01,2013-04-12 09:45:00,
2013-04-12 05:51:00,40.4,40.3,30.15,SE,139,11.1,16.5,100,0.00,,OVC046,0.00,VWS V14.01,2013-04-12 09:51:00,
2013-04-12 05:57:00,40.3,40.3,30.15,SE,142,5.2,15.4,100,0.00,,OVC046,0.00,VWS V14.01,2013-04-12 09:57:00,
2013-04-12 06:03:00,40.3,39.4,30.14,ENE,77,8.8,11.9,97,0.00,,OVC032,0.00,VWS V14.01,2013-04-12 10:03:00,
2013-04-12 06:09:00,40.3,39.4,30.15,SSE,152,4.9,12.1,97,0.00,,OVC032,0.00,VWS V14.01,2013-04-12 10:09:00,
2013-04-12 06:15:00,40.2,39.6,30.15,ESE,115,10.6,13.2,98,0.00,,OVC032,0.00,VWS V14.01,2013-04-12 10:15:00,
2013-04-12 06:21:00,40.3,39.7,30.15,ENE,77,8.5,13.3,98,0.00,,OVC032,0.00,VWS V14.01,2013-04-12 10:21:00,
2013-04-12 06:27:00,40.3,39.8,30.15,ENE,75,11.9,16.0,98,0.00,,OVC032,0.00,VWS V14.01,2013-04-12 10:27:00,
2013-04-12 06:33:00,40.4,40.1,30.16,ESE,111,10.0,13.2,99,0.00,,OVC032,0.00,VWS V14.01,2013-04-12 10:33:00,
2013-04-12 06:39:00,40.4,39.6,30.16,SSE,167,10.1,15.5,97,0.00,,OVC032,0.00,VWS V14.01,2013-04-12 10:39:00,
2013-04-12 06:45:00,40.4,39.4,30.15,South,186,10.5,17.8,96,0.00,,OVC032,0.00,VWS V14.01,2013-04-12 10:45:00,
2013-04-12 06:51:00,40.3,39.3,30.16,SE,125,7.5,14.5,96,0.00,,OVC031,0.00,VWS V14.01,2013-04-12 10:51:00,
2013-04-12 06:57:00,40.3,39.2,30.16,SE,145,4.7,12.9,96,0.00,,OVC031,0.00,VWS V14.01,2013-04-12 10:57:00,
2013-04-12 07:03:00,40.3,38.7,30.17,East,91,7.9,19.5,94,0.00,,OVC031,0.00,VWS V14.01,2013-04-12 11:03:00,
2013-04-12 07:09:00,40.3,38.6,30.17,South,170,10.0,13.2,94,0.00,,OVC031,0.00,VWS V14.01,2013-04-12 11:09:00,
2013-04-12 07:15:00,40.4,38.6,30.17,SSE,158,8.0,11.3,93,0.00,,OVC031,0.00,VWS V14.01,2013-04-12 11:15:00,
2013-04-12 07:21:00,40.8,38.4,30.16,ESE,111,5.4,15.7,91,0.00,,OVC031,0.00,VWS V14.01,2013-04-12 11:21:00,
2013-04-12 07:27:00,40.7,37.6,30.16,SSE,149,11.4,16.2,89,0.00,,OVC031,0.00,VWS V14.01,2013-04-12 11:27:00,
2013-04-12 07:33:00,40.8,37.9,30.16,East,97,10.6,18.2,89,0.00,,OVC031,0.00,VWS V14.01,2013-04-12 11:33:00,
2013-04-12 07:39:00,40.7,39.2,30.16,East,93,10.7,13.9,94,0.00,,OVC031,0.00,VWS V14.01,2013-04-12 11:39:00,
2013-04-12 07:45:00,40.7,39.5,30.16,SE,142,6.4,16.5,95,0.00,,OVC031,0.00,VWS V14.01,2013-04-12 11:45:00,
2013-04-12 07:51:00,40.9,39.8,30.16,SE,141,19.5,22.6,96,0.00,,OVC031,0.00,VWS V14.01,2013-04-12 11:51:00,
2013-04-12 07:57:00,41.0,39.9,30.16,ENE,59,5.4,14.9,96,0.00,,OVC031,0.00,VWS V14.01,2013-04-12 11:57:00,
2013-04-12 08:03:00,41.1,39.9,30.16,SE,141,15.3,15.3,96,0.00,,OVC043,0.00,VWS V14.01,2013-04-12 12:03:00,
2013-04-12 08:09:00,41.1,39.9,30.17,South,170,7.0,14.6,96,0.00,,OVC043,0.00,VWS V14.01,2013-04-12 12:09:00,
2013-04-12 08:15:00,41.2,39.8,30.16,South,177,8.3,15.7,95,0.00,,OVC043,0.00,VWS V14.01,2013-04-12 12:15:00,
2013-04-12 08:21:00,41.3,39.7,30.15,ESE,105,8.3,16.0,94,0.00,,OVC043,0.00,VWS V14.01,2013-04-12 12:21:00,
2013-04-12 08:27:00,41.4,39.5,30.15,East,86,11.1,15.3,93,0.00,,OVC043,0.00,VWS V14.01,2013-04-12 12:27:00,
2013-04-12 08:33:00,41.3,39.0,30.16,East,96,10.2,14.7,92,0.00,,OVC043,0.00,VWS V14.01,2013-04-12 12:33:00,
2013-04-12 08:39:00,41.3,38.8,30.15,SE,131,8.8,15.1,91,0.00,,OVC043,0.00,VWS V14.01,2013-04-12 12:39:00,
2013-04-12 08:45:00,41.3,38.9,30.15,SSW,201,8.7,14.7,91,0.00,,OVC043,0.00,VWS V14.01,2013-04-12 12:45:00,
2013-04-12 08:52:00,41.4,37.6,30.15,SSE,156,13.4,22.1,86,0.00,,OVC043,0.00,VWS V14.01,2013-04-12 12:52:00,
2013-04-12 08:58:00,41.6,37.3,30.15,SSE,162,16.3,17.7,85,0.00,,OVC043,0.00,VWS V14.01,2013-04-12 12:58:00,
2013-04-12 09:03:00,41.8,37.7,30.15,SSE,160,10.0,14.6,85,0.00,,-RA,0.00,VWS V14.01,2013-04-12 13:03:00,
2013-04-12 09:09:00,42.1,37.9,30.15,ESE,118,9.1,10.7,85,0.00,,-RA,0.00,VWS V14.01,2013-04-12 13:09:00,
2013-04-12 09:15:00,42.1,37.8,30.15,South,169,14.6,23.3,85,0.00,,-RA,0.00,VWS V14.01,2013-04-12 13:15:00,
2013-04-12 09:21:00,42.2,38.0,30.15,SE,142,12.3,16.5,85,0.00,,-RA,0.00,VWS V14.01,2013-04-12 13:21:00,
2013-04-12 09:27:00,42.2,37.2,30.13,South,174,14.2,21.3,82,0.00,,-RA,0.00,VWS V14.01,2013-04-12 13:27:00,
2013-04-12 09:33:00,42.3,37.8,30.12,East,86,8.5,19.5,84,0.00,,-RA,0.00,VWS V14.01,2013-04-12 13:33:00,
2013-04-12 09:39:00,42.5,38.5,30.13,SE,139,17.1,18.8,86,0.00,,-RA,0.00,VWS V14.01,2013-04-12 13:39:00,
2013-04-12 09:45:00,42.4,38.7,30.12,SE,143,18.7,20.6,87,0.00,,-RA,0.00,VWS V14.01,2013-04-12 13:45:00,
2013-04-12 09:51:00,42.6,39.2,30.11,SSE,166,14.8,20.4,88,0.00,,-RA,0.00,VWS V14.01,2013-04-12 13:51:00,
2013-04-12 09:57:00,42.6,39.2,30.12,South,184,11.4,18.7,88,0.00,,-RA,0.00,VWS V14.01,2013-04-12 13:57:00,
2013-04-12 10:03:00,42.3,38.7,30.12,SSE,165,15.6,18.6,87,0.00,,OVC047,0.00,VWS V14.01,2013-04-12 14:03:00,
2013-04-12 10:09:00,42.7,39.5,30.12,East,100,10.6,10.8,88,0.00,,OVC047,0.00,VWS V14.01,2013-04-12 14:09:00,
2013-04-12 10:15:00,42.0,38.5,30.12,SE,141,12.3,19.5,87,0.00,,OVC047,0.00,VWS V14.01,2013-04-12 14:15:00,
2013-04-12 10:21:00,42.2,39.1,30.11,SSE,165,15.1,19.2,89,0.00,,OVC047,0.00,VWS V14.01,2013-04-12 14:21:00,
2013-04-12 10:27:00,42.0,39.0,30.10,SSE,155,11.1,24.7,89,0.00,,OVC047,0.00,VWS V14.01,2013-04-12 14:27:00,
2013-04-12 10:33:00,41.8,38.6,30.10,East,86,6.6,19.5,88,0.00,,OVC047,0.00,VWS V14.01,2013-04-12 14:33:00,
2013-04-12 10:39:00,41.8,38.5,30.10,SE,139,19.1,21.7,88,0.00,,OVC047,0.00,VWS V14.01,2013-04-12 14:39:00,
2013-04-12 10:45:00,41.8,38.6,30.10,SSE,156,7.9,15.5,88,0.00,,OVC047,0.00,VWS V14.01,2013-04-12 14:45:00,
2013-04-12 10:51:00,42.0,39.6,30.09,SSE,155,13.6,17.2,91,0.00,,OVC047,0.00,VWS V14.01,2013-04-12 14:51:00,
2013-04-12 10:57:00,41.7,39.0,30.09,SSE,152,11.9,19.7,90,0.00,,OVC047,0.00,VWS V14.01,2013-04-12 14:57:00,
2013-04-12 11:03:00,41.6,39.6,30.09,ESE,122,8.8,17.2,93,0.00,,OVC049,0.00,VWS V14.01,2013-04-12 15:03:00,
2013-04-12 11:09:00,41.8,39.3,30.08,SSE,163,12.6,16.2,91,0.00,,OVC049,0.00,VWS V14.01,2013-04-12 15:09:00,
2013-04-12 11:15:00,42.1,38.8,30.08,ESE,104,6.7,14.4,88,0.00,,OVC049,0.00,VWS V14.01,2013-04-12 15:15:00,
2013-04-12 11:21:00,41.9,38.3,30.07,East,94,9.6,16.9,87,0.00,,OVC049,0.00,VWS V14.01,2013-04-12 15:21:00,
2013-04-12 11:27:00,42.4,39.0,30.07,SE,129,8.0,10.3,88,0.00,,OVC049,0.00,VWS V14.01,2013-04-12 15:27:00,
2013-04-12 11:33:00,42.3,38.2,30.06,South,177,11.3,19.6,85,0.00,,OVC049,0.00,VWS V14.01,2013-04-12 15:33:00,
2013-04-12 11:39:00,42.2,38.0,30.06,SSE,166,12.8,22.3,85,0.00,,OVC049,0.00,VWS V14.01,2013-04-12 15:39:00,
2013-04-12 11:45:00,42.0,38.0,30.05,SSE,163,11.8,17.0,86,0.00,,OVC049,0.00,VWS V14.01,2013-04-12 15:45:00,
2013-04-12 11:51:00,41.6,38.6,30.05,South,180,7.8,16.5,89,0.00,,OVC049,0.00,VWS V14.01,2013-04-12 15:51:00,
2013-04-12 11:57:00,41.2,38.5,30.05,SSE,158,7.7,18.4,90,0.00,,OVC049,0.00,VWS V14.01,2013-04-12 15:57:00,
2013-04-12 12:03:00,40.7,39.5,30.05,South,180,16.6,17.7,95,0.00,,-RA,0.00,VWS V14.01,2013-04-12 16:03:00,
2013-04-12 12:09:00,39.4,38.9,30.05,South,176,7.1,25.7,98,0.00,,-RA,0.00,VWS V14.01,2013-04-12 16:09:00,
2013-04-12 12:15:00,39.3,39.3,30.05,SE,136,11.9,20.5,100,0.00,,-RA,0.00,VWS V14.01,2013-04-12 16:15:00,
2013-04-12 12:22:00,39.1,39.1,30.06,South,172,8.7,14.7,100,0.00,,-RA,0.00,VWS V14.01,2013-04-12 16:22:00,
2013-04-12 12:27:00,39.1,39.1,30.06,South,177,12.2,14.9,100,0.00,,-RA,0.00,VWS V14.01,2013-04-12 16:27:00,
2013-04-12 12:33:00,39.2,39.2,30.06,South,188,7.9,16.1,100,0.00,,-RA,0.00,VWS V14.01,2013-04-12 16:33:00,
2013-04-12 12:39:00,39.3,39.3,30.05,South,172,9.1,16.0,100,0.00,,-RA,0.00,VWS V14.01,2013-04-12 16:39:00,
2013-04-12 12:45:00,38.8,38.8,30.05,SSE,149,8.8,14.6,100,0.00,,-RA,0.00,VWS V14.01,2013-04-12 16:45:00,
2013-04-12 12:51:00,39.2,39.2,30.05,South,188,6.4,9.5,100,0.00,,-RA,0.00,VWS V14.01,2013-04-12 16:51:00,
2013-04-12 12:57:00,39.1,39.1,30.05,SSW,205,6.4,13.7,100,0.00,,-RA,0.00,VWS V14.01,2013-04-12 16:57:00,
2013-04-12 13:03:00,38.8,38.8,30.04,South,170,10.6,16.1,100,0.00,, +RA,0.00,VWS V14.01,2013-04-12 17:03:00,
2013-04-12 13:09:00,38.7,38.7,30.03,SSE,150,10.3,23.9,100,0.00,, +RA,0.00,VWS V14.01,2013-04-12 17:09:00,
2013-04-12 13:15:00,38.4,38.4,30.02,SSE,167,13.4,17.9,100,0.00,, +RA,0.00,VWS V14.01,2013-04-12 17:15:00,
2013-04-12 13:22:00,38.3,38.3,30.04,SSW,201,9.6,11.3,100,0.00,, +RA,0.00,VWS V14.01,2013-04-12 17:22:00,
2013-04-12 13:27:00,38.4,38.4,30.04,SSE,150,10.6,12.8,100,0.00,, +RA,0.00,VWS V14.01,2013-04-12 17:27:00,
2013-04-12 13:33:00,38.3,38.3,30.03,SSE,153,11.4,14.9,100,0.00,, +RA,0.00,VWS V14.01,2013-04-12 17:33:00,
2013-04-12 13:39:00,38.2,38.2,30.02,South,186,9.4,17.5,100,0.00,, +RA,0.00,VWS V14.01,2013-04-12 17:39:00,
2013-04-12 13:47:00,38.2,38.2,30.02,ESE,107,9.1,17.7,100,0.00,, +RA,0.00,VWS V14.01,2013-04-12 17:47:00,
2013-04-12 13:55:00,38.8,38.8,30.02,SSE,160,12.7,17.7,100,0.00,, +RA,0.00,VWS V14.01,2013-04-12 17:55:00,
2013-04-12 14:01:00,38.7,38.7,30.03,NE,35,4.3,19.6,100,0.00,,-RA,0.00,VWS V14.01,2013-04-12 18:01:00,
2013-04-12 14:07:00,38.4,38.4,30.02,SSE,160,10.7,17.7,100,0.00,,-RA,0.00,VWS V14.01,2013-04-12 18:07:00,
2013-04-12 14:13:00,38.4,38.4,30.02,SSE,158,8.0,17.2,100,0.00,,-RA,0.00,VWS V14.01,2013-04-12 18:13:00,
2013-04-12 14:23:00,38.7,38.7,30.01,South,184,14.6,14.7,100,0.00,,-RA,0.00,VWS V14.01,2013-04-12 18:23:00,
2013-04-12 14:29:00,37.8,37.8,30.00,South,183,12.8,16.7,100,0.00,,-RA,0.00,VWS V14.01,2013-04-12 18:29:00,
2013-04-12 15:27:00,38.1,38.1,29.96,SSE,148,8.5,15.1,100,0.00,,RA,0.00,VWS V14.01,2013-04-12 19:27:00,
2013-04-12 15:29:00,38.1,38.1,29.96,SE,145,12.3,15.4,100,0.00,,RA,0.00,VWS V14.01,2013-04-12 19:29:00,
2013-04-12 15:33:00,37.9,37.9,29.95,SE,128,12.3,17.3,100,0.00,,RA,0.00,VWS V14.01,2013-04-12 19:33:00,
2013-04-12 15:37:00,38.1,38.1,29.94,SE,142,12.1,20.8,100,0.00,,RA,0.00,VWS V14.01,2013-04-12 19:37:00,
2013-04-12 15:43:00,38.2,38.2,29.94,ESE,118,9.0,12.4,100,0.00,,RA,0.00,VWS V14.01,2013-04-12 19:43:00,
2013-04-12 15:49:00,38.4,38.4,29.93,SSE,162,9.6,18.5,100,0.00,,RA,0.00,VWS V14.01,2013-04-12 19:49:00,
2013-04-12 15:55:00,38.3,38.3,29.92,South,172,10.3,17.3,100,0.00,,RA,0.00,VWS V14.01,2013-04-12 19:55:00,
2013-04-12 16:01:00,38.3,38.3,29.91,South,188,6.4,17.9,100,0.00,,-RA,0.00,VWS V14.01,2013-04-12 20:01:00,
2013-04-12 16:07:00,38.0,38.0,29.91,SSW,212,7.7,14.6,100,0.00,,-RA,0.00,VWS V14.01,2013-04-12 20:07:00,
2013-04-12 16:13:00,38.1,38.1,29.91,SSE,149,9.0,11.9,100,0.00,,OVC028,0.00,VWS V14.01,2013-04-12 20:13:00,
2013-04-12 16:19:00,38.3,38.3,29.91,SE,132,8.2,12.9,100,0.00,,OVC028,0.00,VWS V14.01,2013-04-12 20:19:00,
2013-04-12 16:25:00,38.4,38.4,29.91,SE,138,9.3,13.4,100,0.00,,OVC028,0.00,VWS V14.01,2013-04-12 20:25:00,
2013-04-12 16:31:00,38.6,38.6,29.90,SSE,159,7.7,17.8,100,0.00,,OVC028,0.00,VWS V14.01,2013-04-12 20:31:00,
2013-04-12 16:37:00,38.7,38.7,29.90,South,181,6.7,15.6,100,0.00,,OVC028,0.00,VWS V14.01,2013-04-12 20:37:00,
2013-04-12 16:43:00,38.9,38.9,29.89,ESE,115,6.5,14.4,100,0.00,,OVC028,0.00,VWS V14.01,2013-04-12 20:43:00,
2013-04-12 16:49:00,39.1,39.1,29.89,ESE,121,6.7,16.6,100,0.00,,OVC028,0.00,VWS V14.01,2013-04-12 20:49:00,
2013-04-12 16:55:00,39.1,39.1,29.89,SSE,149,10.8,13.4,100,0.00,,OVC028,0.00,VWS V14.01,2013-04-12 20:55:00,
2013-04-12 17:01:00,39.0,39.0,29.89,ESE,120,9.6,16.4,100,0.00,,OVC021,0.00,VWS V14.01,2013-04-12 21:01:00,
2013-04-12 17:07:00,39.1,39.1,29.90,East,80,6.9,11.9,100,0.00,,OVC021,0.00,VWS V14.01,2013-04-12 21:07:00,
2013-04-12 17:13:00,39.3,39.3,29.90,ESE,120,5.4,18.7,100,0.00,,-RA,0.00,VWS V14.01,2013-04-12 21:13:00,
2013-04-12 17:19:00,39.2,39.2,29.90,SE,146,9.9,11.4,100,0.00,,-RA,0.00,VWS V14.01,2013-04-12 21:19:00,
2013-04-12 17:25:00,39.1,39.1,29.90,ESE,117,6.8,13.6,100,0.00,,,0.00,VWS V14.01,2013-04-12 21:25:00,
2013-04-12 17:31:00,39.3,39.3,29.89,SSE,163,5.5,12.6,100,0.00,,,0.00,VWS V14.01,2013-04-12 21:31:00,
2013-04-12 17:37:00,39.3,39.3,29.89,East,93,5.9,8.8,100,0.00,,,0.00,VWS V14.01,2013-04-12 21:37:00,
2013-04-12 17:43:00,39.5,39.5,29.89,East,93,7.9,9.6,100,0.00,,,0.00,VWS V14.01,2013-04-12 21:43:00,
2013-04-12 17:49:00,39.3,39.3,29.89,South,169,3.5,10.8,100,0.00,,-RA,0.00,VWS V14.01,2013-04-12 21:49:00,
2013-04-12 17:55:00,39.2,39.2,29.88,East,93,6.0,14.7,100,0.00,,-RA,0.00,VWS V14.01,2013-04-12 21:55:00,
2013-04-12 18:01:00,39.2,39.2,29.88,SE,131,5.2,9.5,100,0.00,,-RA,0.00,VWS V14.01,2013-04-12 22:01:00,
2013-04-12 18:07:00,38.9,38.9,29.88,East,94,7.1,12.2,100,0.00,,-RA,0.00,VWS V14.01,2013-04-12 22:07:00,
2013-04-12 18:13:00,38.9,38.9,29.87,South,184,8.8,11.0,100,0.00,,-RA,0.00,VWS V14.01,2013-04-12 22:13:00,
2013-04-12 18:19:00,38.8,38.8,29.87,East,101,8.3,12.3,100,0.00,,-RA,0.00,VWS V14.01,2013-04-12 22:19:00,
2013-04-12 18:25:00,38.8,38.8,29.87,South,169,3.7,11.9,100,0.00,,-RA,0.00,VWS V14.01,2013-04-12 22:25:00,
2013-04-12 18:32:00,38.8,38.8,29.86,SE,125,7.1,11.0,100,0.00,,-RA,0.00,VWS V14.01,2013-04-12 22:32:00,
2013-04-12 18:37:00,39.0,39.0,29.85,SE,134,5.7,17.6,100,0.00,,-RA,0.00,VWS V14.01,2013-04-12 22:37:00,
2013-04-12 18:43:00,38.9,38.9,29.85,ESE,112,9.3,13.8,100,0.00,,-RA,0.00,VWS V14.01,2013-04-12 22:43:00,
2013-04-12 18:49:00,38.8,38.8,29.85,East,96,6.3,11.8,100,0.00,,-RA,0.00,VWS V14.01,2013-04-12 22:49:00,
2013-04-12 18:55:00,38.9,38.9,29.85,ENE,76,4.4,12.1,100,0.00,,-RA,0.00,VWS V14.01,2013-04-12 22:55:00,
2013-04-12 19:01:00,38.9,38.9,29.84,ESE,108,8.5,13.2,100,0.00,,-RA,0.00,VWS V14.01,2013-04-12 23:01:00,
2013-04-12 19:07:00,38.9,38.9,29.84,ESE,112,10.5,10.5,100,0.00,,-RA,0.00,VWS V14.01,2013-04-12 23:07:00,
2013-04-12 19:13:00,38.8,38.8,29.83,East,97,9.1,9.6,100,0.00,,-RA,0.00,VWS V14.01,2013-04-12 23:13:00,
2013-04-12 19:19:00,39.0,39.0,29.83,SSE,156,6.7,8.5,100,0.00,,-RA,0.00,VWS V14.01,2013-04-12 23:19:00,
2013-04-12 19:25:00,39.1,39.1,29.82,SE,136,6.2,9.0,100,0.00,,-RA,0.00,VWS V14.01,2013-04-12 23:25:00,
2013-04-12 19:31:00,39.1,39.1,29.82,NE,55,6.5,13.9,100,0.00,,-RA,0.00,VWS V14.01,2013-04-12 23:31:00,
2013-04-12 19:37:00,39.2,39.2,29.82,ENE,77,11.3,13.3,100,0.00,,-RA,0.00,VWS V14.01,2013-04-12 23:37:00,
2013-04-12 19:43:00,39.2,39.2,29.82,East,94,5.4,9.5,100,0.00,,-RA,0.00,VWS V14.01,2013-04-12 23:43:00,
2013-04-12 19:49:00,39.3,39.3,29.81,SE,132,6.7,10.4,100,0.00,,-RA,0.00,VWS V14.01,2013-04-12 23:49:00,
2013-04-12 19:55:00,39.4,39.4,29.81,SE,136,5.7,10.3,100,0.00,,-RA,0.00,VWS V14.01,2013-04-12 23:55:00,
2013-04-12 20:02:00,39.4,39.4,29.81,ENE,77,7.4,12.9,100,0.00,,-RA,0.00,VWS V14.01,2013-04-13 00:02:00,
2013-04-12 20:07:00,39.5,39.5,29.81,ENE,68,5.7,10.6,100,0.00,,-RA,0.00,VWS V14.01,2013-04-13 00:07:00,
2013-04-12 20:13:00,39.5,39.5,29.81,ENE,76,6.2,9.1,100,0.00,,-RA,0.00,VWS V14.01,2013-04-13 00:13:00,
2013-04-12 20:19:00,39.5,39.5,29.81,ENE,76,6.0,11.5,100,0.00,,-RA,0.00,VWS V14.01,2013-04-13 00:19:00,
2013-04-12 20:25:00,39.6,39.6,29.81,ESE,103,6.5,9.7,100,0.00,,-RA,0.00,VWS V14.01,2013-04-13 00:25:00,
2013-04-12 20:31:00,39.5,39.5,29.80,East,83,9.0,12.7,100,0.00,,-RA,0.00,VWS V14.01,2013-04-13 00:31:00,
2013-04-12 20:37:00,39.5,39.5,29.80,ENE,66,7.3,10.6,100,0.00,,-RA,0.00,VWS V14.01,2013-04-13 00:37:00,
2013-04-12 20:43:00,39.6,39.6,29.80,East,91,6.7,8.8,100,0.00,,-RA,0.00,VWS V14.01,2013-04-13 00:43:00,
2013-04-12 20:49:00,39.6,39.6,29.80,East,97,7.9,11.1,100,0.00,,-RA,0.00,VWS V14.01,2013-04-13 00:49:00,
2013-04-12 20:55:00,39.5,39.5,29.80,East,91,9.3,11.4,100,0.00,,-RA,0.00,VWS V14.01,2013-04-13 00:55:00,
2013-04-12 21:01:00,39.5,39.5,29.80,East,79,8.7,12.5,100,0.00,,-RA,0.00,VWS V14.01,2013-04-13 01:01:00,
2013-04-12 21:07:00,39.5,39.5,29.80,East,87,11.4,13.9,100,0.00,,-RA,0.00,VWS V14.01,2013-04-13 01:07:00,
2013-04-12 21:13:00,39.5,39.5,29.79,East,98,7.8,11.1,100,0.00,,-RA,0.00,VWS V14.01,2013-04-13 01:13:00,
2013-04-12 21:19:00,39.6,39.6,29.79,ESE,115,10.0,11.3,100,0.00,,-RA,0.00,VWS V14.01,2013-04-13 01:19:00,
2013-04-12 21:25:00,39.5,39.5,29.79,NE,46,9.6,10.9,100,0.00,,-RA,0.00,VWS V14.01,2013-04-13 01:25:00,
2013-04-12 21:31:00,39.6,39.6,29.79,ENE,68,7.2,10.6,100,0.00,,-RA,0.00,VWS V14.01,2013-04-13 01:31:00,
2013-04-12 21:37:00,39.5,39.5,29.79,ESE,104,7.0,12.3,100,0.00,,-RA,0.00,VWS V14.01,2013-04-13 01:37:00,
2013-04-12 21:43:00,39.3,39.3,29.79,NE,48,7.8,11.1,100,0.00,,-RA,0.00,VWS V14.01,2013-04-13 01:43:00,
2013-04-12 21:49:00,39.4,39.4,29.79,NE,42,7.6,11.3,100,0.00,,-RA,0.00,VWS V14.01,2013-04-13 01:49:00,
2013-04-12 21:55:00,39.3,39.3,29.79,NE,44,7.4,11.3,100,0.00,,-RA,0.00,VWS V14.01,2013-04-13 01:55:00,
2013-04-12 22:01:00,39.3,39.3,29.79,NNE,18,8.1,11.6,100,0.00,,,0.00,VWS V14.01,2013-04-13 02:01:00,
2013-04-12 22:07:00,39.4,39.4,29.79,ENE,68,5.8,9.0,100,0.00,,,0.00,VWS V14.01,2013-04-13 02:07:00,
2013-04-12 22:13:00,39.3,39.3,29.79,ENE,75,9.1,13.4,100,0.00,,,0.00,VWS V14.01,2013-04-13 02:13:00,
2013-04-12 22:19:00,39.3,39.3,29.78,East,91,7.9,13.9,100,0.00,,,0.00,VWS V14.01,2013-04-13 02:19:00,
2013-04-12 22:25:00,39.3,39.3,29.79,East,93,5.9,10.8,100,0.00,,,0.00,VWS V14.01,2013-04-13 02:25:00,
2013-04-12 22:31:00,39.3,39.3,29.79,ENE,59,5.5,10.1,100,0.00,,,0.00,VWS V14.01,2013-04-13 02:31:00,
2013-04-12 22:37:00,39.4,39.4,29.79,ENE,77,9.1,10.8,100,0.00,,,0.00,VWS V14.01,2013-04-13 02:37:00,
2013-04-12 22:43:00,39.3,39.3,29.77,ENE,65,7.7,10.5,100,0.00,,,0.00,VWS V14.01,2013-04-13 02:43:00,
2013-04-12 22:49:00,39.3,39.3,29.77,East,86,7.2,11.9,100,0.00,,,0.00,VWS V14.01,2013-04-13 02:49:00,
2013-04-12 22:55:00,39.5,39.5,29.77,East,84,8.0,14.2,100,0.00,,,0.00,VWS V14.01,2013-04-13 02:55:00,
2013-04-12 23:01:00,39.5,39.5,29.76,ESE,103,8.0,13.3,100,0.00,,,0.00,VWS V14.01,2013-04-13 03:01:00,
2013-04-12 23:08:00,39.5,39.5,29.76,ENE,60,7.3,12.7,100,0.00,,,0.00,VWS V14.01,2013-04-13 03:08:00,
2013-04-12 23:13:00,39.5,39.5,29.76,ENE,58,7.5,13.7,100,0.00,,,0.00,VWS V14.01,2013-04-13 03:13:00,
2013-04-12 23:19:00,39.4,39.4,29.76,East,98,5.9,10.9,100,0.00,,,0.00,VWS V14.01,2013-04-13 03:19:00,
2013-04-12 23:25:00,39.5,39.5,29.76,NNE,18,9.6,9.8,100,0.00,,,0.00,VWS V14.01,2013-04-13 03:25:00,
2013-04-12 23:31:00,39.4,39.4,29.76,NNE,30,7.2,10.1,100,0.00,,,0.00,VWS V14.01,2013-04-13 03:31:00,
2013-04-12 23:37:00,39.6,39.6,29.75,NE,52,8.0,10.6,100,0.00,,,0.00,VWS V14.01,2013-04-13 03:37:00,
2013-04-12 23:43:00,39.4,39.4,29.75,ESE,110,6.4,16.5,100,0.00,,,0.00,VWS V14.01,2013-04-13 03:43:00,
2013-04-12 23:49:00,39.5,39.5,29.75,NE,52,6.5,9.3,100,0.00,,,0.00,VWS V14.01,2013-04-13 03:49:00,
2013-04-12 23:55:00,39.5,39.5,29.76,East,90,7.2,9.9,100,0.00,,,0.00,VWS V14.01,2013-04-13 03:55:00,